Pagina principală
METAR-TAF:

METAR-TAF

Aeroporturi :

Hermiston Municipal Airport

Hermiston, Oregon, Statele Unite ale Americii

Latitudine: 45-49-33N, longitudine: 119-15-40W, elevație: 194 m

Observații meteo curente

Raportul a fost făcut în urmă cu 58 de minute, la 08:53 UTC
Vânt 4 kt de la Est
Temperatură 19°C
Umiditate 46%
Presiune 1011 hPa
Vizibilitate: 16.1 km
Cer senin

METAR: KHRI 170853Z AUTO 08004KT 10SM CLR 19/07 A2986 RMK AO2 SLP104 T01890072 53007 $

Ora: 02:51 (09:51 UTC)


TAF: lipsă

Observații și prognoze meteo pentru peste 4.000 de aeroporturi (rapoarte METAR și TAF).

Stațiile disponibile sunt reprezentate pe hartă prin puncte galbene și roșii.

Țineți indicatorul mouse-ului pe punctul dorit pentru a vedea denumirea stației.

Apoi, faceți clic pentru a vedea observațiile și prognozele meteorologice.

Pentru a schimba harta: Pentru mărire, faceți clic pe butoanele verzi cu cruce neagră; pentru micșorare, pe butonul verde cu o liniuță; pentru hărți învecinate, pe săgețile verzi.


METAR-TAF: